createdAt,value
2022-12-18T00:00:31.446Z,83.49
2022-12-18T00:01:37.305Z,83.53
2022-12-18T00:02:39.007Z,83.56
2022-12-18T00:03:41.102Z,83.64
2022-12-18T00:04:43.021Z,83.65
2022-12-18T00:05:51.249Z,83.63
2022-12-18T00:06:53.053Z,83.51
2022-12-18T00:07:54.642Z,83.70
2022-12-18T00:08:57.065Z,83.49
2022-12-18T00:09:58.681Z,83.95
2022-12-18T00:11:07.485Z,83.86
2022-12-18T00:13:17.366Z,83.91
2022-12-18T00:14:18.989Z,83.72
2022-12-18T00:15:20.775Z,83.72
2022-12-18T00:16:23.509Z,83.89
2022-12-18T00:17:25.520Z,83.59
2022-12-18T00:18:27.139Z,83.50
2022-12-18T00:19:28.734Z,83.44
2022-12-18T00:20:30.383Z,83.61
2022-12-18T00:21:32.718Z,83.55
2022-12-18T00:22:34.283Z,83.40
2022-12-18T00:23:36.777Z,83.36
2022-12-18T00:24:38.704Z,83.32
2022-12-18T00:25:40.356Z,83.86
2022-12-18T00:26:41.951Z,83.82
2022-12-18T00:27:43.582Z,83.69
2022-12-18T00:28:45.397Z,83.73
2022-12-18T00:29:46.995Z,83.73
2022-12-18T00:30:52.427Z,83.79
2022-12-18T00:31:54.075Z,83.92
2022-12-18T00:32:55.715Z,83.84
2022-12-18T00:33:57.514Z,84.10
2022-12-18T00:34:59.107Z,83.92
2022-12-18T00:36:11.801Z,83.81
2022-12-18T00:37:18.279Z,83.57
2022-12-18T00:38:21.556Z,83.94
2022-12-18T00:39:23.219Z,83.72
2022-12-18T00:40:24.800Z,83.45
2022-12-18T00:41:45.148Z,83.33
2022-12-18T00:42:58.881Z,83.14
2022-12-18T00:44:00.456Z,83.33
2022-12-18T00:45:02.025Z,83.26
2022-12-18T00:46:03.778Z,83.24
2022-12-18T00:47:05.488Z,83.04
2022-12-18T00:48:07.268Z,82.92
2022-12-18T00:49:08.861Z,83.02
2022-12-18T00:50:10.705Z,83.09
2022-12-18T00:51:12.416Z,83.11
2022-12-18T00:52:14.015Z,83.05
2022-12-18T00:53:15.660Z,83.06
2022-12-18T00:54:17.383Z,83.04
2022-12-18T00:55:18.995Z,82.97
2022-12-18T00:56:23.223Z,83.13
2022-12-18T00:57:24.805Z,83.02
2022-12-18T00:58:26.506Z,83.02
2022-12-18T00:59:28.143Z,83.12
2022-12-18T01:00:29.751Z,82.88
2022-12-18T01:01:31.430Z,82.77
2022-12-18T01:02:33.245Z,82.79
2022-12-18T01:03:35.064Z,82.77
2022-12-18T01:04:36.749Z,82.91
2022-12-18T01:05:41.051Z,83.09
2022-12-18T01:06:42.636Z,83.19
2022-12-18T01:07:44.258Z,83.25
2022-12-18T01:08:45.938Z,83.37
2022-12-18T01:09:47.511Z,83.21
2022-12-18T01:10:49.094Z,83.62
2022-12-18T01:11:50.686Z,83.63
2022-12-18T01:12:52.303Z,83.88
2022-12-18T01:13:54.524Z,84.32
2022-12-18T01:14:56.103Z,84.70
2022-12-18T01:15:57.702Z,84.83
2022-12-18T01:16:59.350Z,84.95
2022-12-18T01:18:00.935Z,85.07
2022-12-18T01:19:02.562Z,85.01
2022-12-18T01:20:04.671Z,85.20
2022-12-18T01:21:09.980Z,85.15
2022-12-18T01:22:11.556Z,85.30
2022-12-18T01:23:13.189Z,85.10
2022-12-18T01:24:14.863Z,84.99
2022-12-18T01:25:16.498Z,84.96
2022-12-18T01:26:18.080Z,84.87
2022-12-18T01:27:19.690Z,84.80
2022-12-18T01:28:21.288Z,84.91
2022-12-18T01:29:22.910Z,85.09
2022-12-18T01:30:24.551Z,85.16
2022-12-18T01:31:27.799Z,85.17
2022-12-18T01:32:31.560Z,84.91
2022-12-18T01:33:33.131Z,85.22
2022-12-18T01:34:36.898Z,85.05
2022-12-18T01:35:44.857Z,85.14
2022-12-18T01:36:46.439Z,85.08
2022-12-18T01:37:48.007Z,85.17
2022-12-18T01:38:49.763Z,85.08
2022-12-18T01:39:53.448Z,84.95
2022-12-18T01:41:01.594Z,85.11
2022-12-18T01:42:03.875Z,84.91
2022-12-18T01:43:05.429Z,84.96
2022-12-18T01:44:45.635Z,85.00
2022-12-18T01:45:47.342Z,85.13
2022-12-18T01:46:48.969Z,85.33
2022-12-18T01:48:01.943Z,85.23
2022-12-18T01:49:04.192Z,85.47
2022-12-18T01:50:17.781Z,85.61
2022-12-18T01:51:19.335Z,85.77
2022-12-18T01:52:21.206Z,86.00
2022-12-18T01:53:23.401Z,86.17
2022-12-18T01:54:24.969Z,86.29
2022-12-18T01:55:29.175Z,86.42
2022-12-18T01:56:30.751Z,86.45
2022-12-18T01:57:32.402Z,86.50
2022-12-18T01:58:42.175Z,86.73
2022-12-18T01:59:44.164Z,86.56
2022-12-18T02:00:45.856Z,86.42
2022-12-18T02:01:47.940Z,86.24
2022-12-18T02:02:49.718Z,86.25
2022-12-18T02:03:52.396Z,85.92
2022-12-18T02:04:53.974Z,85.96
2022-12-18T02:06:11.212Z,85.96
2022-12-18T02:07:28.354Z,85.83
2022-12-18T02:08:41.411Z,85.82
2022-12-18T02:10:06.332Z,85.88
2022-12-18T02:11:38.380Z,85.71
2022-12-18T02:12:45.872Z,85.68
2022-12-18T02:13:56.935Z,85.51
2022-12-18T02:15:08.348Z,85.51
2022-12-18T02:16:13.586Z,86.07
2022-12-18T02:17:24.074Z,85.88
2022-12-18T02:18:29.175Z,85.72
2022-12-18T02:20:07.913Z,85.42
2022-12-18T02:21:21.591Z,85.41
2022-12-18T02:22:44.226Z,85.68
2022-12-18T02:23:54.537Z,85.51
2022-12-18T02:25:07.545Z,85.62
2022-12-18T02:26:14.408Z,85.82
2022-12-18T02:27:15.981Z,86.05
2022-12-18T02:28:17.676Z,86.29
2022-12-18T02:29:22.997Z,86.26
2022-12-18T02:30:24.645Z,86.21
2022-12-18T02:31:31.683Z,86.52
2022-12-18T02:32:36.469Z,86.31
2022-12-18T02:33:38.640Z,86.46
2022-12-18T02:34:41.029Z,86.08
2022-12-18T02:35:42.665Z,85.98
2022-12-18T02:36:44.754Z,86.43
2022-12-18T02:37:46.355Z,86.15
2022-12-18T02:38:48.055Z,86.07
2022-12-18T02:39:49.945Z,85.84
2022-12-18T02:40:51.579Z,85.69
2022-12-18T02:41:53.390Z,85.39
2022-12-18T02:42:55.346Z,85.20
2022-12-18T02:43:58.653Z,85.11
2022-12-18T02:45:00.228Z,85.05
2022-12-18T02:46:01.929Z,85.22
2022-12-18T02:47:03.642Z,85.19
2022-12-18T02:48:05.433Z,85.17
2022-12-18T02:49:28.867Z,85.11
2022-12-18T02:50:39.151Z,85.02
2022-12-18T02:51:57.006Z,85.36
2022-12-18T02:53:19.535Z,85.30
2022-12-18T02:54:51.361Z,85.40
2022-12-18T02:56:04.736Z,85.46
2022-12-18T02:57:36.840Z,85.09
2022-12-18T02:58:47.448Z,85.01
2022-12-18T02:59:57.376Z,85.03
2022-12-18T03:01:08.958Z,85.13
2022-12-18T03:02:25.824Z,85.08
2022-12-18T03:03:33.735Z,84.89
2022-12-18T03:04:39.923Z,85.01
2022-12-18T03:05:46.553Z,85.11
2022-12-18T03:06:52.250Z,84.89
2022-12-18T03:07:59.447Z,84.97
2022-12-18T03:09:07.408Z,85.17
2022-12-18T03:10:10.436Z,85.33
2022-12-18T03:11:13.088Z,85.12
2022-12-18T03:12:42.386Z,85.24
2022-12-18T03:13:49.622Z,85.49
2022-12-18T03:15:06.159Z,85.37
2022-12-18T03:16:10.035Z,85.45
2022-12-18T03:17:12.379Z,85.73
2022-12-18T03:18:47.837Z,85.74
2022-12-18T03:19:49.481Z,85.94
2022-12-18T03:20:51.079Z,86.03
2022-12-18T03:21:56.930Z,86.17
2022-12-18T03:23:05.553Z,86.43
2022-12-18T03:24:07.961Z,86.42
2022-12-18T03:25:11.461Z,86.35
2022-12-18T03:26:14.969Z,86.15
2022-12-18T03:27:18.650Z,86.07
2022-12-18T03:28:22.037Z,86.00
2022-12-18T03:29:28.442Z,86.02
2022-12-18T03:30:31.859Z,85.93
2022-12-18T03:31:33.450Z,86.02
2022-12-18T03:32:40.544Z,86.23
2022-12-18T03:33:53.285Z,86.13
2022-12-18T03:34:55.066Z,86.11
2022-12-18T03:35:56.626Z,86.47
2022-12-18T03:36:58.708Z,86.43
2022-12-18T03:38:00.303Z,86.26
2022-12-18T03:39:01.878Z,86.41
2022-12-18T03:40:04.696Z,86.39
2022-12-18T03:41:08.826Z,86.23
2022-12-18T03:42:29.533Z,86.18
2022-12-18T03:43:40.250Z,86.28
2022-12-18T03:44:56.763Z,86.14
2022-12-18T03:46:06.519Z,86.03
2022-12-18T03:47:21.024Z,86.42
2022-12-18T03:48:36.473Z,86.25
2022-12-18T03:49:48.861Z,86.11
2022-12-18T03:51:19.476Z,86.00
2022-12-18T03:52:32.963Z,85.90
2022-12-18T03:53:48.136Z,85.81
2022-12-18T03:54:49.713Z,85.97
2022-12-18T03:55:51.633Z,85.93
2022-12-18T03:56:58.536Z,85.96
2022-12-18T03:58:00.295Z,85.84
2022-12-18T03:59:02.099Z,85.74
2022-12-18T04:00:07.570Z,85.87
2022-12-18T04:01:09.331Z,85.85
2022-12-18T04:02:11.114Z,85.69
2022-12-18T04:03:12.868Z,85.78
2022-12-18T04:04:14.863Z,85.87
2022-12-18T04:05:16.546Z,85.73
2022-12-18T04:06:18.131Z,86.07
2022-12-18T04:07:20.021Z,86.35
2022-12-18T04:08:22.301Z,86.22
2022-12-18T04:09:23.921Z,86.26
2022-12-18T04:10:25.564Z,86.38
2022-12-18T04:11:27.205Z,86.10
2022-12-18T04:12:29.965Z,86.05
2022-12-18T04:13:37.382Z,86.17
2022-12-18T04:14:39.192Z,86.31
2022-12-18T04:15:40.805Z,86.25
2022-12-18T04:16:42.431Z,85.96
2022-12-18T04:17:50.787Z,86.08
2022-12-18T04:18:53.088Z,86.13
2022-12-18T04:19:54.869Z,86.10
2022-12-18T04:20:56.474Z,86.25
2022-12-18T04:21:58.051Z,86.10
2022-12-18T04:22:59.679Z,85.92
2022-12-18T04:24:01.322Z,86.34
2022-12-18T04:25:02.927Z,86.50
2022-12-18T04:26:04.607Z,86.54
2022-12-18T04:27:07.036Z,86.28
2022-12-18T04:28:08.622Z,86.51
2022-12-18T04:29:10.259Z,86.82
2022-12-18T04:30:12.140Z,86.79
2022-12-18T04:31:13.959Z,87.00
2022-12-18T04:32:15.734Z,86.87
2022-12-18T04:33:17.438Z,87.03
2022-12-18T04:34:19.027Z,86.86
2022-12-18T04:35:20.631Z,86.94
2022-12-18T04:36:22.286Z,86.99
2022-12-18T04:37:23.905Z,86.81
2022-12-18T04:38:25.579Z,87.13
2022-12-18T04:39:27.214Z,86.99
2022-12-18T04:40:28.777Z,87.12
2022-12-18T04:41:30.394Z,87.07
2022-12-18T04:42:32.039Z,87.20
2022-12-18T04:43:33.998Z,87.03
2022-12-18T04:44:35.570Z,86.91
2022-12-18T04:45:37.155Z,86.77
2022-12-18T04:46:38.810Z,86.72
2022-12-18T04:47:40.544Z,86.49
2022-12-18T04:48:42.138Z,86.93
2022-12-18T04:49:43.710Z,87.02
2022-12-18T04:50:45.324Z,86.99
2022-12-18T04:51:46.876Z,86.95
2022-12-18T04:52:48.843Z,86.77
2022-12-18T04:53:50.448Z,86.74
2022-12-18T04:54:52.018Z,86.99
2022-12-18T04:56:07.043Z,86.75
2022-12-18T04:57:08.637Z,86.66
2022-12-18T04:58:10.288Z,86.42
2022-12-18T04:59:11.957Z,86.38
2022-12-18T05:00:13.963Z,86.31
2022-12-18T05:01:16.933Z,86.26
2022-12-18T05:02:18.773Z,86.29
2022-12-18T05:03:20.478Z,86.39
2022-12-18T05:04:22.056Z,86.32
2022-12-18T05:05:23.686Z,86.19
2022-12-18T05:06:25.323Z,86.05
2022-12-18T05:07:26.921Z,86.05
2022-12-18T05:08:28.472Z,85.95
2022-12-18T05:09:30.065Z,86.14
2022-12-18T05:10:37.725Z,86.13
2022-12-18T05:11:40.027Z,86.34
2022-12-18T05:12:59.629Z,86.46
2022-12-18T05:14:03.005Z,86.45
2022-12-18T05:15:04.990Z,86.61
2022-12-18T05:16:07.431Z,86.62
2022-12-18T05:17:09.115Z,86.46
2022-12-18T05:18:10.767Z,86.49
2022-12-18T05:19:12.488Z,86.39
2022-12-18T05:20:14.914Z,86.41
2022-12-18T05:21:16.559Z,86.32
2022-12-18T05:22:18.133Z,86.68
2022-12-18T05:23:19.886Z,86.85
2022-12-18T05:24:21.520Z,86.84
2022-12-18T05:25:23.307Z,86.93
2022-12-18T05:26:24.949Z,86.80
2022-12-18T05:27:26.614Z,86.78
2022-12-18T05:28:29.271Z,86.74
2022-12-18T05:29:30.924Z,86.64
2022-12-18T05:30:32.533Z,86.73
2022-12-18T05:31:39.432Z,86.68
2022-12-18T05:32:41.527Z,86.52
2022-12-18T05:33:43.716Z,86.36
2022-12-18T05:34:45.527Z,86.29
2022-12-18T05:36:12.468Z,86.95
2022-12-18T05:37:14.086Z,86.80
2022-12-18T05:38:15.676Z,87.11
2022-12-18T05:39:17.245Z,87.20
2022-12-18T05:40:18.967Z,87.49
2022-12-18T05:41:20.699Z,87.21
2022-12-18T05:42:22.362Z,87.07
2022-12-18T05:43:24.164Z,86.95
2022-12-18T05:44:25.783Z,86.78
2022-12-18T05:45:27.814Z,86.56
2022-12-18T05:46:30.631Z,86.59
2022-12-18T05:47:32.243Z,86.47
2022-12-18T05:48:33.889Z,86.13
2022-12-18T05:49:35.477Z,85.93
2022-12-18T05:50:37.968Z,85.76
2022-12-18T05:51:39.527Z,85.83
2022-12-18T05:52:42.050Z,85.56
2022-12-18T05:53:44.152Z,85.45
2022-12-18T05:54:45.832Z,85.64
2022-12-18T05:55:48.071Z,85.85
2022-12-18T05:56:49.716Z,85.77
2022-12-18T05:57:51.298Z,86.27
2022-12-18T05:58:54.005Z,86.40
2022-12-18T05:59:55.676Z,86.32
2022-12-18T06:00:57.298Z,86.48
2022-12-18T06:01:59.036Z,86.44
2022-12-18T06:03:00.804Z,86.30
2022-12-18T06:04:02.698Z,86.17
2022-12-18T06:05:05.383Z,86.24
2022-12-18T06:06:21.085Z,86.47
2022-12-18T06:07:22.697Z,86.64
2022-12-18T06:08:24.264Z,86.51
2022-12-18T06:09:26.035Z,86.59
2022-12-18T06:10:27.610Z,86.43
2022-12-18T06:11:30.497Z,86.27
2022-12-18T06:12:32.374Z,86.29
2022-12-18T06:13:33.957Z,86.37
2022-12-18T06:14:35.532Z,86.35
2022-12-18T06:15:37.772Z,86.25
2022-12-18T06:16:39.969Z,86.09
2022-12-18T06:17:41.555Z,86.01
2022-12-18T06:18:43.137Z,85.91
2022-12-18T06:19:45.518Z,85.83
2022-12-18T06:20:57.093Z,85.72
2022-12-18T06:21:59.973Z,85.66
2022-12-18T06:23:01.611Z,85.56
2022-12-18T06:24:03.176Z,85.57
2022-12-18T06:25:05.452Z,86.18
2022-12-18T06:26:08.624Z,86.39
2022-12-18T06:27:10.205Z,86.45
2022-12-18T06:28:11.769Z,86.59
2022-12-18T06:29:13.370Z,86.64
2022-12-18T06:30:15.061Z,87.02
2022-12-18T06:31:16.879Z,87.11
2022-12-18T06:32:18.496Z,86.97
2022-12-18T06:33:20.103Z,86.93
2022-12-18T06:34:21.680Z,86.85
2022-12-18T06:35:23.429Z,86.71
2022-12-18T06:36:25.094Z,86.67
2022-12-18T06:37:27.198Z,86.60
2022-12-18T06:38:28.867Z,86.91
2022-12-18T06:39:30.584Z,86.75
2022-12-18T06:40:32.224Z,86.79
2022-12-18T06:41:33.943Z,86.75
2022-12-18T06:42:35.574Z,86.83
2022-12-18T06:43:37.775Z,86.98
2022-12-18T06:44:39.893Z,87.00
2022-12-18T06:45:41.482Z,86.91
2022-12-18T06:46:43.136Z,86.56
2022-12-18T06:47:44.907Z,86.36
2022-12-18T06:48:50.880Z,86.17
2022-12-18T06:49:52.473Z,86.00
2022-12-18T06:50:54.171Z,85.85
2022-12-18T06:51:55.801Z,85.74
2022-12-18T06:52:57.486Z,85.57
2022-12-18T06:53:59.067Z,85.53
2022-12-18T06:55:00.859Z,85.89
2022-12-18T06:56:10.333Z,86.16
2022-12-18T06:57:12.579Z,86.12
2022-12-18T06:58:14.226Z,85.94
2022-12-18T06:59:15.832Z,85.76
2022-12-18T07:00:17.646Z,85.53
2022-12-18T07:01:19.400Z,85.39
2022-12-18T07:02:21.155Z,85.27
2022-12-18T07:03:22.990Z,85.46
2022-12-18T07:04:29.672Z,85.56
2022-12-18T07:05:31.277Z,85.42
2022-12-18T07:06:32.868Z,85.29
2022-12-18T07:07:35.427Z,85.21
2022-12-18T07:08:37.142Z,85.12
2022-12-18T07:09:38.740Z,85.32
2022-12-18T07:10:46.954Z,85.12
2022-12-18T07:11:50.538Z,85.60
2022-12-18T07:12:52.149Z,85.74
2022-12-18T07:13:54.139Z,85.78
2022-12-18T07:14:56.047Z,85.91
2022-12-18T07:16:06.799Z,85.93
2022-12-18T07:17:10.204Z,86.07
2022-12-18T07:18:11.818Z,85.95
2022-12-18T07:19:13.388Z,85.74
2022-12-18T07:20:15.115Z,85.61
2022-12-18T07:21:18.437Z,85.55
2022-12-18T07:22:20.063Z,85.78
2022-12-18T07:23:21.670Z,85.49
2022-12-18T07:24:23.322Z,85.67
2022-12-18T07:25:24.989Z,85.48
2022-12-18T07:26:27.398Z,86.20
2022-12-18T07:27:29.061Z,86.21
2022-12-18T07:28:31.342Z,85.99
2022-12-18T07:29:32.954Z,85.94
2022-12-18T07:30:34.546Z,86.10
2022-12-18T07:31:36.199Z,86.15
2022-12-18T07:32:37.865Z,86.34
2022-12-18T07:33:39.810Z,86.66
2022-12-18T07:34:41.883Z,86.58
2022-12-18T07:35:43.508Z,86.14
2022-12-18T07:36:45.092Z,85.73
2022-12-18T07:37:46.733Z,85.78
2022-12-18T07:38:49.198Z,85.54
2022-12-18T07:39:50.843Z,85.33
2022-12-18T07:40:53.535Z,85.53
2022-12-18T07:42:13.702Z,85.61
2022-12-18T07:43:15.306Z,85.46
2022-12-18T07:44:17.035Z,85.52
2022-12-18T07:45:18.632Z,85.27
2022-12-18T07:46:20.298Z,85.27
2022-12-18T07:47:21.925Z,85.48
2022-12-18T07:48:23.535Z,85.39
2022-12-18T07:49:25.184Z,85.42
2022-12-18T07:50:26.863Z,85.55
2022-12-18T07:51:28.466Z,85.51
2022-12-18T07:52:30.038Z,85.42
2022-12-18T07:53:31.983Z,85.60
2022-12-18T07:54:33.623Z,85.31
2022-12-18T07:55:54.785Z,85.40
2022-12-18T07:56:56.809Z,85.70
2022-12-18T07:58:01.125Z,85.38
2022-12-18T07:59:03.344Z,85.32
2022-12-18T08:00:05.446Z,85.15
2022-12-18T08:01:08.467Z,85.00
2022-12-18T08:02:10.608Z,85.16
2022-12-18T08:03:15.422Z,85.14
2022-12-18T08:04:17.230Z,84.99
2022-12-18T08:05:18.865Z,84.56
2022-12-18T08:06:22.507Z,84.40
2022-12-18T08:07:26.202Z,84.50
2022-12-18T08:08:28.001Z,84.68
2022-12-18T08:09:29.638Z,84.59
2022-12-18T08:10:31.285Z,84.64
2022-12-18T08:11:32.950Z,84.52
2022-12-18T08:12:34.531Z,84.27
2022-12-18T08:13:37.000Z,84.09
2022-12-18T08:14:38.761Z,84.55
2022-12-18T08:15:40.395Z,84.40
2022-12-18T08:16:42.036Z,84.84
2022-12-18T08:17:43.632Z,84.56
2022-12-18T08:18:45.269Z,84.48
2022-12-18T08:19:46.839Z,84.32
2022-12-18T08:20:48.480Z,84.12
2022-12-18T08:21:50.088Z,84.40
2022-12-18T08:22:51.723Z,84.25
2022-12-18T08:23:53.886Z,84.22
2022-12-18T08:24:55.460Z,84.11
2022-12-18T08:25:59.371Z,83.95
2022-12-18T08:28:22.587Z,83.70
2022-12-18T08:29:24.362Z,83.97
2022-12-18T08:30:26.045Z,84.22
2022-12-18T08:31:28.529Z,84.33
2022-12-18T08:32:30.632Z,84.38
2022-12-18T08:33:32.431Z,84.02
2022-12-18T08:34:34.064Z,84.39
2022-12-18T08:35:42.477Z,84.19
2022-12-18T08:36:47.180Z,84.43
2022-12-18T08:37:48.760Z,83.88
2022-12-18T08:38:50.360Z,84.21
2022-12-18T08:39:51.984Z,83.73
2022-12-18T08:41:05.901Z,83.53
2022-12-18T08:42:25.913Z,83.32
2022-12-18T08:43:45.896Z,83.77
2022-12-18T08:44:47.558Z,83.94
2022-12-18T08:45:49.220Z,83.83
2022-12-18T08:46:50.843Z,83.62
2022-12-18T08:47:52.431Z,83.08
2022-12-18T08:48:54.678Z,83.41
2022-12-18T08:49:56.322Z,83.49
2022-12-18T08:50:58.538Z,83.81
2022-12-18T08:52:00.129Z,83.76
2022-12-18T08:53:02.095Z,83.80
2022-12-18T08:54:03.911Z,83.88
2022-12-18T08:55:09.004Z,83.95
2022-12-18T08:56:10.644Z,83.30
2022-12-18T08:57:12.206Z,82.76
2022-12-18T08:58:13.792Z,82.56
2022-12-18T08:59:19.364Z,82.84
2022-12-18T09:00:21.283Z,83.30
2022-12-18T09:01:23.437Z,83.60
2022-12-18T09:02:25.189Z,83.39
2022-12-18T09:03:26.979Z,83.70
2022-12-18T09:04:28.619Z,83.34
2022-12-18T09:05:30.732Z,83.73
2022-12-18T09:06:32.403Z,83.73
2022-12-18T09:07:34.137Z,83.90
2022-12-18T09:08:35.811Z,83.89
2022-12-18T09:09:37.392Z,83.87
2022-12-18T09:10:45.693Z,84.28
2022-12-18T09:11:47.330Z,83.84
2022-12-18T09:12:48.920Z,83.80
2022-12-18T09:13:51.215Z,83.84
2022-12-18T09:14:52.870Z,83.54
2022-12-18T09:15:55.205Z,83.24
2022-12-18T09:16:56.905Z,83.50
2022-12-18T09:17:58.571Z,83.21
2022-12-18T09:19:00.847Z,83.50
2022-12-18T09:20:02.529Z,82.52
2022-12-18T09:21:18.085Z,82.01
2022-12-18T09:22:19.678Z,82.67
2022-12-18T09:23:21.564Z,82.67
2022-12-18T09:24:23.179Z,82.57
2022-12-18T09:25:24.835Z,82.56
2022-12-18T09:26:27.317Z,82.28
2022-12-18T09:27:28.943Z,82.58
2022-12-18T09:28:30.567Z,83.22
2022-12-18T09:29:32.258Z,82.92
2022-12-18T09:30:35.175Z,83.30
2022-12-18T09:31:37.572Z,82.51
2022-12-18T09:32:39.213Z,82.56
2022-12-18T09:33:40.814Z,82.62
2022-12-18T09:34:42.449Z,82.72
2022-12-18T09:35:45.353Z,82.58
2022-12-18T09:36:47.413Z,82.36
2022-12-18T09:37:49.081Z,82.28
2022-12-18T09:38:50.850Z,81.64
2022-12-18T09:39:52.454Z,80.83
2022-12-18T09:40:57.001Z,80.85
2022-12-18T09:41:59.321Z,81.04
2022-12-18T09:43:03.157Z,80.79
2022-12-18T09:44:26.112Z,79.97
2022-12-18T09:45:27.754Z,80.72
2022-12-18T09:46:35.781Z,80.40
2022-12-18T09:47:37.835Z,80.21
2022-12-18T09:48:41.790Z,80.28
2022-12-18T09:49:45.523Z,80.41
2022-12-18T09:50:47.195Z,80.76
2022-12-18T09:51:52.407Z,79.72
2022-12-18T09:52:55.788Z,79.25
2022-12-18T09:54:00.210Z,78.75
2022-12-18T09:55:14.257Z,78.81
2022-12-18T09:56:20.645Z,78.32
2022-12-18T09:57:23.496Z,78.78
2022-12-18T09:58:48.758Z,79.17
2022-12-18T09:59:54.270Z,78.46
2022-12-18T10:00:55.957Z,78.12
2022-12-18T10:01:57.906Z,77.83
2022-12-18T10:03:02.637Z,78.07
2022-12-18T10:04:05.976Z,77.53
2022-12-18T10:05:30.826Z,78.44
2022-12-18T10:06:50.670Z,77.88
2022-12-18T10:08:01.207Z,78.08
2022-12-18T10:09:04.884Z,78.41
2022-12-18T10:10:59.120Z,79.05
2022-12-18T10:12:04.711Z,78.91
2022-12-18T10:13:14.867Z,78.55
2022-12-18T10:14:30.723Z,78.16
2022-12-18T10:16:03.310Z,78.05
2022-12-18T10:17:26.493Z,77.51
2022-12-18T10:18:30.968Z,77.26
2022-12-18T10:20:00.938Z,76.87
2022-12-18T10:21:16.944Z,77.09
2022-12-18T10:22:21.137Z,77.38
2022-12-18T10:23:27.940Z,77.35
2022-12-18T10:24:53.554Z,76.09
2022-12-18T10:26:00.925Z,75.46
2022-12-18T10:27:19.351Z,75.51
2022-12-18T10:28:20.957Z,75.95
2022-12-18T10:29:22.689Z,75.77
2022-12-18T10:30:24.871Z,75.22
2022-12-18T10:31:26.695Z,75.21
2022-12-18T10:32:29.613Z,75.76
2022-12-18T10:33:32.849Z,75.31
2022-12-18T10:34:35.020Z,75.33
2022-12-18T10:35:36.594Z,74.60
2022-12-18T10:36:38.487Z,75.31
2022-12-18T10:37:40.127Z,76.13
2022-12-18T10:38:42.757Z,74.42
2022-12-18T10:39:44.791Z,74.61
2022-12-18T10:41:05.717Z,74.16
2022-12-18T10:42:20.298Z,73.95
2022-12-18T10:43:30.186Z,73.76
2022-12-18T10:44:31.762Z,72.83
2022-12-18T10:45:33.379Z,73.21
2022-12-18T10:46:34.974Z,72.70
2022-12-18T10:47:36.671Z,71.93
2022-12-18T10:48:47.425Z,72.51
2022-12-18T10:49:51.020Z,72.90
2022-12-18T10:52:23.900Z,73.30
2022-12-18T10:53:29.871Z,73.22
2022-12-18T10:54:31.921Z,72.96
2022-12-18T10:55:38.797Z,73.54
2022-12-18T10:56:40.563Z,73.01
2022-12-18T10:57:42.903Z,72.84
2022-12-18T10:58:44.772Z,73.12
2022-12-18T10:59:55.699Z,73.22
2022-12-18T11:01:07.938Z,72.95
2022-12-18T11:02:25.790Z,72.48
2022-12-18T11:04:06.377Z,73.24
2022-12-18T11:05:33.009Z,72.66
2022-12-18T11:06:34.636Z,73.04
2022-12-18T11:07:57.312Z,73.48
2022-12-18T11:09:06.589Z,74.19
2022-12-18T11:10:18.618Z,73.61
2022-12-18T11:11:23.700Z,74.06
2022-12-18T11:12:25.343Z,74.07
2022-12-18T11:13:28.546Z,73.60
2022-12-18T11:14:34.874Z,73.84
2022-12-18T11:15:36.481Z,74.32
2022-12-18T11:16:57.892Z,74.10
2022-12-18T11:18:05.320Z,74.50
2022-12-18T11:19:27.374Z,75.23
2022-12-18T11:20:35.574Z,74.68
2022-12-18T11:21:41.476Z,74.83
2022-12-18T11:22:43.062Z,74.35
2022-12-18T11:23:48.365Z,73.59
2022-12-18T11:25:30.012Z,73.91
2022-12-18T11:26:21.034Z,73.86
2022-12-18T11:27:22.690Z,73.74
2022-12-18T11:28:39.586Z,74.07
2022-12-18T11:29:46.433Z,74.16
2022-12-18T11:30:48.393Z,74.13
2022-12-18T11:31:50.005Z,74.47
2022-12-18T11:33:22.026Z,73.52
2022-12-18T11:34:29.938Z,73.60
2022-12-18T11:35:48.005Z,72.59
2022-12-18T11:36:49.789Z,72.85
2022-12-18T11:38:33.778Z,73.06
2022-12-18T11:39:36.610Z,73.06
2022-12-18T11:40:41.338Z,73.57
2022-12-18T11:42:13.079Z,73.69
2022-12-18T11:43:18.109Z,74.30
2022-12-18T11:44:30.935Z,74.20
2022-12-18T11:45:37.516Z,74.82
2022-12-18T11:46:42.082Z,74.33
2022-12-18T11:47:53.502Z,74.05
2022-12-18T11:48:58.245Z,73.48
2022-12-18T11:50:09.376Z,73.37
2022-12-18T11:51:13.914Z,72.83
2022-12-18T11:52:24.455Z,72.76
2022-12-18T11:53:26.936Z,72.36
2022-12-18T11:54:28.637Z,72.10
2022-12-18T11:55:45.280Z,72.48
2022-12-18T11:57:09.810Z,71.62
2022-12-18T11:58:39.354Z,71.55
2022-12-18T12:00:05.407Z,72.17
2022-12-18T12:01:28.062Z,72.62
2022-12-18T12:02:42.754Z,72.70
2022-12-18T12:04:18.960Z,72.72
2022-12-18T12:05:27.280Z,72.24
2022-12-18T12:06:47.564Z,71.83
2022-12-18T12:08:11.262Z,71.95
2022-12-18T12:09:31.629Z,72.20
2022-12-18T12:10:59.582Z,71.72
2022-12-18T12:12:28.679Z,72.23
2022-12-18T12:13:38.279Z,71.87
2022-12-18T12:14:52.991Z,71.68
2022-12-18T12:16:02.020Z,71.04
2022-12-18T12:17:15.186Z,70.97
2022-12-18T12:18:53.895Z,70.91
2022-12-18T12:20:10.007Z,70.60
2022-12-18T12:21:38.230Z,70.32
2022-12-18T12:22:43.425Z,70.40
2022-12-18T12:24:13.236Z,70.30
2022-12-18T12:25:18.063Z,70.15
2022-12-18T12:26:32.890Z,70.78
2022-12-18T12:27:34.668Z,70.39
2022-12-18T12:28:55.038Z,71.50
2022-12-18T12:30:05.752Z,70.98
2022-12-18T12:31:20.387Z,70.97
2022-12-18T12:32:50.885Z,70.85
2022-12-18T12:34:26.282Z,70.43
2022-12-18T12:35:52.498Z,70.84
2022-12-18T12:37:06.059Z,71.04
2022-12-18T12:38:27.456Z,71.37
2022-12-18T12:39:35.995Z,71.38
2022-12-18T12:40:52.418Z,71.13
2022-12-18T12:42:24.576Z,70.85
2022-12-18T12:43:51.160Z,70.92
2022-12-18T12:44:58.223Z,71.77
2022-12-18T12:46:09.072Z,71.59
2022-12-18T12:47:26.518Z,71.49
2022-12-18T12:48:50.446Z,71.59
2022-12-18T12:49:52.521Z,72.06
2022-12-18T12:50:54.115Z,72.10
2022-12-18T12:52:12.263Z,71.70
2022-12-18T12:53:37.544Z,72.09
2022-12-18T12:54:39.798Z,72.13
2022-12-18T12:55:41.731Z,71.80
2022-12-18T12:56:51.785Z,71.39
2022-12-18T12:58:14.914Z,71.00
2022-12-18T12:59:41.192Z,71.26
2022-12-18T13:00:51.623Z,71.05
2022-12-18T13:02:12.008Z,71.00
2022-12-18T13:03:28.405Z,70.95
2022-12-18T13:04:37.689Z,71.32
2022-12-18T13:05:53.853Z,71.43
2022-12-18T13:07:13.603Z,71.66
2022-12-18T13:10:13.290Z,71.90
2022-12-18T13:12:00.583Z,71.41
2022-12-18T13:13:03.932Z,71.65
2022-12-18T13:13:43.832Z,71.99
2022-12-18T13:14:05.522Z,70.96
2022-12-18T13:15:21.224Z,71.19
2022-12-18T13:16:25.840Z,71.41
2022-12-18T13:17:30.720Z,71.20
2022-12-18T13:18:33.261Z,71.54
2022-12-18T13:19:34.872Z,71.73
2022-12-18T13:20:52.434Z,71.58
2022-12-18T13:21:56.954Z,71.63
2022-12-18T13:22:58.617Z,71.43
2022-12-18T13:24:16.694Z,71.01
2022-12-18T13:25:35.552Z,70.58
2022-12-18T13:26:37.500Z,70.61
2022-12-18T13:27:41.793Z,70.56
2022-12-18T13:28:47.054Z,70.77
2022-12-18T13:29:48.905Z,71.16
2022-12-18T13:30:57.243Z,71.32
2022-12-18T13:32:00.125Z,71.54
2022-12-18T13:33:19.568Z,71.16
2022-12-18T13:35:47.147Z,71.24
2022-12-18T13:36:50.587Z,71.37
2022-12-18T13:37:53.876Z,71.31
2022-12-18T13:39:28.878Z,71.46
2022-12-18T13:40:40.742Z,71.47
2022-12-18T13:41:43.013Z,71.24
2022-12-18T13:43:03.177Z,71.04
2022-12-18T13:44:27.617Z,71.15
2022-12-18T13:45:40.642Z,70.97
2022-12-18T13:46:46.745Z,70.95
2022-12-18T13:47:48.329Z,71.32
2022-12-18T13:49:00.923Z,71.16
2022-12-18T13:50:04.638Z,71.43
2022-12-18T13:51:09.536Z,71.45
2022-12-18T13:52:36.021Z,71.86
2022-12-18T13:53:41.026Z,71.87
2022-12-18T13:54:42.967Z,71.92
2022-12-18T13:55:46.077Z,71.97
2022-12-18T13:56:48.480Z,72.29
2022-12-18T13:57:50.173Z,72.39
2022-12-18T13:59:18.854Z,72.32
2022-12-18T14:00:23.925Z,72.64
2022-12-18T14:01:25.732Z,72.71
2022-12-18T14:02:28.752Z,73.20
2022-12-18T14:03:31.622Z,73.23
2022-12-18T14:04:35.024Z,72.93
2022-12-18T14:05:38.610Z,72.18
2022-12-18T14:06:42.792Z,72.06
2022-12-18T14:07:48.269Z,71.86
2022-12-18T14:08:51.983Z,72.03
2022-12-18T14:10:01.871Z,72.24
2022-12-18T14:11:08.117Z,72.19
2022-12-18T14:12:36.802Z,71.51
2022-12-18T14:13:39.972Z,71.84
2022-12-18T14:14:46.274Z,71.83
2022-12-18T14:15:48.550Z,71.66
2022-12-18T14:16:50.262Z,71.37
2022-12-18T14:17:56.273Z,73.05